Select Airport:
Chesapeake Regional Airport
Last updated: 8 minutes ago
Flight conditions: LIFR
Visibility: 10.0 statute miles
Sky Conditions:
   Overcast at 400 feet
Wind From: 350°
Wind speed: 3 knots (3.45 mph)
Temperature: 16.1°C (60.98°F)
Dew Point: 15.5°C (59.9°F)
Altimiter setting: 30.19 in-hg
WX phone: 1-757-204-4290
WX freq: 123.675 MHz
Runway 5
   Crosswind component: 2.6 knots (2.99 mph)
   Headwind component: 1.5 knots (1.73 mph)
KCPK 261135Z AUTO 35003KT 10SM OVC004 16/16 A3019 RMK AO2 T01610155
FOR REFERENCE USE ONLY, DATA MAY NOT BE CURRENT.
ALWAYS CHECK FOR UP TO DATE INFORMATION.